createdAt,value
2022-08-07T00:01:43.559Z,8.23
2022-08-07T00:04:06.823Z,8.75
2022-08-07T00:06:36.992Z,8.98
2022-08-07T00:09:21.311Z,10.43
2022-08-07T00:11:55.895Z,8.73
2022-08-07T00:14:31.512Z,11.18
2022-08-07T00:17:00.376Z,8.48
2022-08-07T00:20:00.188Z,7.65
2022-08-07T00:22:24.917Z,6.88
2022-08-07T00:25:03.727Z,9.43
2022-08-07T00:27:51.726Z,6.93
2022-08-07T00:30:26.582Z,6.97
2022-08-07T00:32:59.113Z,6.97
2022-08-07T00:35:26.651Z,5.65
2022-08-07T00:37:56.951Z,9.10
2022-08-07T00:40:39.940Z,7.75
2022-08-07T00:43:09.832Z,7.30
2022-08-07T00:45:39.034Z,7.72
2022-08-07T00:48:10.305Z,8.18
2022-08-07T00:50:50.222Z,7.50
2022-08-07T00:53:20.231Z,9.32
2022-08-07T00:56:03.003Z,8.50
2022-08-07T00:58:31.534Z,7.97
2022-08-07T01:00:58.977Z,9.80
2022-08-07T01:03:56.942Z,8.25
2022-08-07T01:06:13.360Z,7.47
2022-08-07T01:08:43.102Z,8.57
2022-08-07T01:11:10.782Z,7.47
2022-08-07T01:13:58.069Z,9.93
2022-08-07T01:16:30.290Z,7.97
2022-08-07T01:18:58.051Z,8.35
2022-08-07T01:21:27.051Z,9.18
2022-08-07T01:23:57.326Z,9.27
2022-08-07T01:26:26.259Z,8.70
2022-08-07T01:28:53.795Z,9.77
2022-08-07T01:31:21.469Z,9.23
2022-08-07T01:33:57.483Z,10.18
2022-08-07T01:36:33.593Z,8.27
2022-08-07T01:39:09.590Z,10.27
2022-08-07T01:41:39.045Z,8.90
2022-08-07T01:44:08.034Z,8.98
2022-08-07T01:46:34.999Z,11.38
2022-08-07T01:49:02.465Z,10.75
2022-08-07T01:52:03.853Z,10.65
2022-08-07T01:54:36.443Z,10.75
2022-08-07T01:57:09.658Z,15.65
2022-08-07T02:00:01.091Z,12.75
2022-08-07T02:03:18.819Z,13.45
2022-08-07T02:05:43.065Z,13.38
2022-08-07T02:08:13.941Z,12.75
2022-08-07T02:10:42.257Z,14.30
2022-08-07T02:13:09.793Z,18.42
2022-08-07T02:15:37.240Z,17.30
2022-08-07T02:18:04.843Z,20.05
2022-08-07T02:20:33.751Z,19.60
2022-08-07T02:23:05.315Z,23.38
2022-08-07T02:26:30.864Z,20.33
2022-08-07T02:28:25.624Z,18.27
2022-08-07T02:30:54.853Z,17.48
2022-08-07T02:33:23.189Z,19.52
2022-08-07T02:36:30.015Z,18.90
2022-08-07T02:38:38.406Z,20.27
2022-08-07T02:41:05.495Z,19.73
2022-08-07T02:43:38.881Z,20.75
2022-08-07T02:46:07.377Z,21.88
2022-08-07T02:48:34.651Z,25.02
2022-08-07T02:51:05.273Z,23.10
2022-08-07T02:53:38.695Z,24.77
2022-08-07T02:56:13.051Z,29.33
2022-08-07T02:58:49.812Z,26.70
2022-08-07T03:01:35.714Z,26.90
2022-08-07T03:04:07.181Z,26.23
2022-08-07T03:06:40.265Z,26.52
2022-08-07T03:09:11.210Z,25.30
2022-08-07T03:14:06.328Z,26.13
2022-08-07T03:16:34.129Z,26.33
2022-08-07T03:19:01.496Z,25.20
2022-08-07T03:21:33.083Z,27.77
2022-08-07T03:24:20.719Z,22.77
2022-08-07T03:26:58.385Z,29.30
2022-08-07T03:29:44.764Z,28.55
2022-08-07T03:34:47.598Z,27.65
2022-08-07T03:37:46.025Z,32.88
2022-08-07T03:40:20.129Z,34.95
2022-08-07T03:42:50.144Z,31.70
2022-08-07T03:45:29.935Z,29.92
2022-08-07T03:47:58.952Z,32.53
2022-08-07T03:50:28.764Z,32.13
2022-08-07T03:52:59.665Z,38.10
2022-08-07T03:55:53.156Z,34.38
2022-08-07T03:59:07.272Z,29.58
2022-08-07T04:01:03.625Z,29.83
2022-08-07T04:03:38.896Z,33.72
2022-08-07T04:06:36.232Z,36.28
2022-08-07T04:09:04.226Z,31.38
2022-08-07T04:12:25.319Z,28.40
2022-08-07T04:14:37.322Z,33.78
2022-08-07T04:17:20.418Z,32.03
2022-08-07T04:19:52.327Z,31.48
2022-08-07T04:22:23.140Z,32.35
2022-08-07T04:24:50.580Z,29.70
2022-08-07T04:27:25.336Z,33.47
2022-08-07T04:29:58.344Z,30.63
2022-08-07T04:32:27.280Z,35.65
2022-08-07T04:35:05.984Z,31.10
2022-08-07T04:37:52.852Z,34.55
2022-08-07T04:40:20.723Z,28.50
2022-08-07T04:42:51.720Z,26.27
2022-08-07T04:46:00.454Z,27.00
2022-08-07T04:48:17.905Z,28.65
2022-08-07T04:50:52.895Z,30.15
2022-08-07T04:53:40.077Z,32.17
2022-08-07T04:58:16.316Z,29.88
2022-08-07T04:59:17.412Z,26.20
2022-08-07T05:02:03.741Z,27.35
2022-08-07T05:04:57.859Z,26.73
2022-08-07T05:07:36.944Z,29.08
2022-08-07T05:10:23.344Z,27.80
2022-08-07T05:12:58.616Z,28.23
2022-08-07T05:15:32.225Z,29.90
2022-08-07T05:18:06.260Z,28.75
2022-08-07T05:20:44.421Z,31.80
2022-08-07T05:23:17.855Z,30.75
2022-08-07T05:26:12.922Z,28.95
2022-08-07T05:28:34.057Z,29.40
2022-08-07T05:31:01.590Z,27.35
2022-08-07T05:33:31.481Z,28.25
2022-08-07T05:36:03.387Z,30.02
2022-08-07T05:38:58.152Z,32.47
2022-08-07T05:41:18.780Z,28.20
2022-08-07T05:44:07.970Z,29.65
2022-08-07T05:46:37.974Z,24.92
2022-08-07T05:49:11.655Z,21.67
2022-08-07T05:51:42.360Z,16.75
2022-08-07T05:54:30.091Z,17.35
2022-08-07T05:56:57.359Z,14.05
2022-08-07T05:59:27.431Z,13.75
2022-08-07T06:01:57.175Z,13.38
2022-08-07T06:04:26.362Z,13.18
2022-08-07T06:07:03.823Z,10.88
2022-08-07T06:09:45.058Z,12.68
2022-08-07T06:12:31.641Z,12.70
2022-08-07T06:15:05.634Z,12.48
2022-08-07T06:17:37.580Z,13.32
2022-08-07T06:20:06.103Z,11.80
2022-08-07T06:22:40.715Z,12.45
2022-08-07T06:25:17.562Z,10.55
2022-08-07T06:28:00.154Z,11.23
2022-08-07T06:30:35.346Z,10.35
2022-08-07T06:33:05.075Z,12.27
2022-08-07T06:35:45.620Z,13.02
2022-08-07T06:38:19.845Z,12.20
2022-08-07T06:40:50.298Z,13.65
2022-08-07T06:43:21.419Z,10.85
2022-08-07T06:45:49.521Z,11.18
2022-08-07T06:48:24.712Z,10.13
2022-08-07T06:50:54.090Z,10.85
2022-08-07T06:55:29.758Z,13.98
2022-08-07T06:56:15.335Z,9.82
2022-08-07T07:00:14.656Z,13.88
2022-08-07T07:01:33.287Z,11.90
2022-08-07T07:04:32.138Z,11.77
2022-08-07T07:07:01.254Z,9.82
2022-08-07T07:09:31.291Z,10.98
2022-08-07T07:12:08.195Z,9.95
2022-08-07T07:14:43.568Z,12.45
2022-08-07T07:17:15.991Z,12.48
2022-08-07T07:19:57.392Z,11.65
2022-08-07T07:22:36.909Z,12.82
2022-08-07T07:26:32.444Z,13.23
2022-08-07T07:28:07.732Z,11.57
2022-08-07T07:30:56.971Z,14.80
2022-08-07T07:33:26.323Z,14.00
2022-08-07T07:36:05.486Z,11.00
2022-08-07T07:38:41.144Z,13.25
2022-08-07T07:41:12.300Z,10.27
2022-08-07T07:44:14.613Z,13.73
2022-08-07T07:46:38.175Z,11.25
2022-08-07T07:50:34.218Z,12.63
2022-08-07T07:52:13.057Z,10.50
2022-08-07T07:54:44.293Z,10.10
2022-08-07T07:57:44.041Z,11.82
2022-08-07T08:00:09.581Z,9.38
2022-08-07T08:02:37.929Z,10.95
2022-08-07T08:05:42.820Z,9.23
2022-08-07T08:08:34.763Z,8.25
2022-08-07T08:10:58.032Z,9.85
2022-08-07T08:13:36.553Z,10.88
2022-08-07T08:16:12.847Z,10.52
2022-08-07T08:18:39.683Z,10.27
2022-08-07T08:21:26.608Z,10.45
2022-08-07T08:24:36.237Z,9.70
2022-08-07T08:27:16.551Z,7.57
2022-08-07T08:29:55.549Z,11.43
2022-08-07T08:32:25.587Z,12.35
2022-08-07T08:35:07.598Z,10.00
2022-08-07T08:38:00.651Z,8.25
2022-08-07T08:40:34.056Z,9.25
2022-08-07T08:43:05.028Z,10.10
2022-08-07T08:45:59.321Z,9.82
2022-08-07T08:48:28.376Z,8.80
2022-08-07T08:51:14.816Z,9.88
2022-08-07T08:53:56.628Z,9.07
2022-08-07T08:56:26.239Z,8.68
2022-08-07T08:58:57.221Z,11.07
2022-08-07T09:01:29.616Z,10.52
2022-08-07T09:04:26.177Z,8.55
2022-08-07T09:06:58.457Z,7.43
2022-08-07T09:09:47.578Z,8.10
2022-08-07T09:12:33.118Z,8.73
2022-08-07T09:16:25.154Z,9.20
2022-08-07T09:18:15.795Z,7.15
2022-08-07T09:20:58.467Z,8.73
2022-08-07T09:24:32.117Z,7.43
2022-08-07T09:27:11.940Z,7.13
2022-08-07T09:30:03.471Z,7.28
2022-08-07T09:32:52.327Z,9.38
2022-08-07T09:36:04.927Z,7.00
2022-08-07T09:38:15.273Z,7.65
2022-08-07T09:40:57.664Z,8.40
2022-08-07T09:43:40.623Z,5.85
2022-08-07T09:47:42.382Z,7.57
2022-08-07T09:50:02.359Z,5.97
2022-08-07T09:52:37.165Z,6.57
2022-08-07T09:55:28.735Z,5.82
2022-08-07T09:57:59.820Z,7.65
2022-08-07T10:00:47.328Z,5.28
2022-08-07T10:04:05.497Z,5.50
2022-08-07T10:06:17.697Z,6.30
2022-08-07T10:08:49.628Z,5.35
2022-08-07T10:12:03.365Z,8.00
2022-08-07T10:14:30.497Z,5.68
2022-08-07T10:17:10.558Z,8.55
2022-08-07T10:19:48.530Z,6.85
2022-08-07T10:22:37.392Z,7.40
2022-08-07T10:25:13.737Z,6.60
2022-08-07T10:27:45.953Z,5.70
2022-08-07T10:30:27.600Z,6.82
2022-08-07T10:32:59.760Z,5.72
2022-08-07T10:35:55.547Z,5.93
2022-08-07T10:38:42.038Z,5.88
2022-08-07T10:41:54.724Z,4.03
2022-08-07T10:44:37.368Z,6.38
2022-08-07T10:47:14.148Z,6.70
2022-08-07T10:49:49.251Z,7.25
2022-08-07T10:52:36.955Z,4.75
2022-08-07T10:55:45.884Z,5.80
2022-08-07T10:58:56.722Z,5.63
2022-08-07T11:01:52.048Z,5.05
2022-08-07T11:04:34.915Z,5.07
2022-08-07T11:07:15.139Z,5.93
2022-08-07T11:10:08.920Z,5.75
2022-08-07T11:13:01.678Z,4.43
2022-08-07T11:15:32.283Z,4.65
2022-08-07T11:18:03.626Z,5.35
2022-08-07T11:20:31.448Z,4.90
2022-08-07T11:23:20.806Z,4.95
2022-08-07T11:26:06.315Z,8.90
2022-08-07T11:28:55.741Z,6.22
2022-08-07T11:31:22.705Z,13.45
2022-08-07T11:34:23.561Z,6.55
2022-08-07T11:37:00.422Z,6.18
2022-08-07T11:40:00.274Z,6.15
2022-08-07T11:42:37.931Z,3.55
2022-08-07T11:45:23.784Z,4.25
2022-08-07T11:48:18.298Z,3.88
2022-08-07T11:51:09.079Z,5.60
2022-08-07T11:54:00.780Z,5.78
2022-08-07T11:56:52.335Z,6.00
2022-08-07T12:00:11.262Z,5.40
2022-08-07T12:02:20.984Z,3.70
2022-08-07T12:05:09.138Z,4.43
2022-08-07T12:08:05.544Z,5.88
2022-08-07T12:10:41.830Z,5.35
2022-08-07T12:13:11.656Z,4.55
2022-08-07T12:16:07.089Z,8.02
2022-08-07T12:18:57.924Z,8.27
2022-08-07T12:21:55.514Z,4.40
2022-08-07T12:24:37.515Z,4.75
2022-08-07T12:27:14.930Z,5.68
2022-08-07T12:29:43.320Z,3.60
2022-08-07T12:32:30.065Z,8.82
2022-08-07T12:34:58.199Z,4.30
2022-08-07T12:37:28.625Z,5.82
2022-08-07T12:40:44.129Z,5.35
2022-08-07T12:43:09.656Z,5.10
2022-08-07T12:45:45.750Z,4.70
2022-08-07T12:48:41.628Z,3.85
2022-08-07T12:51:19.942Z,4.65
2022-08-07T12:54:36.836Z,10.48
2022-08-07T12:56:50.903Z,4.80
2022-08-07T12:59:33.295Z,4.68
2022-08-07T13:02:33.158Z,4.57
2022-08-07T13:05:14.667Z,7.80
2022-08-07T13:08:14.465Z,2.75
2022-08-07T13:10:52.285Z,3.95
2022-08-07T13:13:46.894Z,4.07
2022-08-07T13:16:17.399Z,5.78
2022-08-07T13:18:44.766Z,4.07
2022-08-07T13:21:37.191Z,3.58
2022-08-07T13:24:25.824Z,4.40
2022-08-07T13:27:20.446Z,3.42
2022-08-07T13:30:18.917Z,3.08
2022-08-07T13:32:57.259Z,4.30
2022-08-07T13:36:01.099Z,2.58
2022-08-07T13:38:30.594Z,2.88
2022-08-07T13:41:04.525Z,4.40
2022-08-07T13:43:41.839Z,3.42
2022-08-07T13:46:21.923Z,3.70
2022-08-07T13:48:59.297Z,3.38
2022-08-07T13:52:22.370Z,3.40
2022-08-07T13:54:16.624Z,5.03
2022-08-07T13:56:55.749Z,4.68
2022-08-07T13:59:27.564Z,2.58
2022-08-07T14:02:08.041Z,2.95
2022-08-07T14:04:49.179Z,2.75
2022-08-07T14:07:19.726Z,3.95
2022-08-07T14:10:17.622Z,3.78
2022-08-07T14:13:00.539Z,2.38
2022-08-07T14:15:42.290Z,2.72
2022-08-07T14:18:29.336Z,3.35
2022-08-07T14:22:00.696Z,3.53
2022-08-07T14:24:06.529Z,3.13
2022-08-07T14:26:54.008Z,4.15
2022-08-07T14:30:07.785Z,2.53
2022-08-07T14:32:12.787Z,3.50
2022-08-07T14:34:45.877Z,2.47
2022-08-07T14:37:16.759Z,3.03
2022-08-07T14:40:17.072Z,3.70
2022-08-07T14:42:33.739Z,4.55
2022-08-07T14:47:58.762Z,5.70
2022-08-07T14:50:28.217Z,3.53
2022-08-07T14:52:56.385Z,2.20
2022-08-07T14:55:55.329Z,3.10
2022-08-07T14:58:25.202Z,3.15
2022-08-07T15:00:54.724Z,3.10
2022-08-07T15:03:23.513Z,2.75
2022-08-07T15:06:11.189Z,5.00
2022-08-07T15:08:47.545Z,2.28
2022-08-07T15:11:52.844Z,2.42
2022-08-07T15:14:15.472Z,3.55
2022-08-07T15:16:54.839Z,2.08
2022-08-07T15:20:31.650Z,2.70
2022-08-07T15:22:23.254Z,3.38
2022-08-07T15:28:32.805Z,2.78
2022-08-07T15:36:12.007Z,3.17
2022-08-07T15:42:44.824Z,3.22
2022-08-07T15:44:18.981Z,2.83
2022-08-07T15:46:52.588Z,6.07
2022-08-07T15:49:25.193Z,2.95
2022-08-07T15:54:26.713Z,3.75
2022-08-07T15:56:58.650Z,5.63
2022-08-07T15:59:39.614Z,3.88
2022-08-07T16:02:15.223Z,4.00
2022-08-07T16:04:44.030Z,5.38
2022-08-07T16:08:28.374Z,8.55
2022-08-07T16:10:18.971Z,8.25
2022-08-07T16:13:01.385Z,8.95
2022-08-07T16:15:57.562Z,6.18
2022-08-07T16:18:49.809Z,6.22
2022-08-07T16:22:01.303Z,6.65
2022-08-07T16:24:34.370Z,6.35
2022-08-07T16:27:21.137Z,6.70
2022-08-07T16:30:10.940Z,8.50
2022-08-07T16:32:54.266Z,4.22
2022-08-07T16:35:52.160Z,3.42
2022-08-07T16:38:44.398Z,3.17
2022-08-07T16:41:41.550Z,5.03
2022-08-07T16:44:46.324Z,4.38
2022-08-07T16:47:45.381Z,3.53
2022-08-07T16:50:39.291Z,2.90
2022-08-07T16:54:03.041Z,1.45
2022-08-07T16:56:08.874Z,3.35
2022-08-07T16:59:14.421Z,66.00
2022-08-07T17:04:24.607Z,13.93
2022-08-07T17:07:10.806Z,50.15
2022-08-07T17:10:09.310Z,2.58
2022-08-07T17:12:56.838Z,32.03
2022-08-07T17:15:50.661Z,3.63
2022-08-07T17:18:28.356Z,82.88
2022-08-07T17:20:56.606Z,12.70
2022-08-07T17:23:32.325Z,13.25
2022-08-07T17:26:06.301Z,4.70
2022-08-07T17:29:07.504Z,2.97
2022-08-07T17:31:44.063Z,1.13
2022-08-07T17:35:02.711Z,2.20
2022-08-07T17:38:11.528Z,1.85
2022-08-07T17:40:30.194Z,2.85
2022-08-07T17:43:14.994Z,1.88
2022-08-07T17:45:54.154Z,1.35
2022-08-07T17:48:31.728Z,2.10
2022-08-07T17:51:16.300Z,2.85
2022-08-07T17:54:02.264Z,1.00
2022-08-07T17:56:35.429Z,3.00
2022-08-07T17:59:21.492Z,1.48
2022-08-07T18:02:07.011Z,1.58
2022-08-07T18:04:44.857Z,1.88
2022-08-07T18:07:20.816Z,3.40
2022-08-07T18:10:06.388Z,2.55
2022-08-07T18:12:50.299Z,2.60
2022-08-07T18:15:32.571Z,4.28
2022-08-07T18:18:36.686Z,4.82
2022-08-07T18:21:41.414Z,3.58
2022-08-07T18:23:56.197Z,3.45
2022-08-07T18:26:45.828Z,2.33
2022-08-07T18:30:06.991Z,2.33
2022-08-07T18:32:39.465Z,3.47
2022-08-07T18:35:15.788Z,1.45
2022-08-07T18:38:58.086Z,1.88
2022-08-07T18:41:09.237Z,1.95
2022-08-07T18:43:57.281Z,2.83
2022-08-07T18:46:32.285Z,1.40
2022-08-07T18:50:19.321Z,1.15
2022-08-07T18:52:34.250Z,2.00
2022-08-07T18:54:49.658Z,1.63
2022-08-07T18:57:37.155Z,2.08
2022-08-07T19:00:32.779Z,3.08
2022-08-07T19:03:12.211Z,1.88
2022-08-07T19:06:02.543Z,1.95
2022-08-07T19:08:46.474Z,1.63
2022-08-07T19:11:35.764Z,4.43
2022-08-07T19:14:20.222Z,3.15
2022-08-07T19:17:05.738Z,1.80
2022-08-07T19:19:48.804Z,2.30
2022-08-07T19:22:30.902Z,1.10
2022-08-07T19:25:06.531Z,2.50
2022-08-07T19:28:58.136Z,1.90
2022-08-07T19:33:15.805Z,1.42
2022-08-07T19:35:46.801Z,2.05
2022-08-07T19:40:50.603Z,2.15
2022-08-07T19:43:48.757Z,2.20
2022-08-07T19:46:14.543Z,1.52
2022-08-07T19:48:54.005Z,3.40
2022-08-07T19:51:50.455Z,2.33
2022-08-07T19:54:31.936Z,3.08
2022-08-07T19:58:01.869Z,5.60
2022-08-07T19:59:56.078Z,1.70
2022-08-07T20:02:52.323Z,2.30
2022-08-07T20:05:28.005Z,2.10
2022-08-07T20:07:58.443Z,2.00
2022-08-07T20:10:54.621Z,3.40
2022-08-07T20:13:27.155Z,1.45
2022-08-07T20:16:01.033Z,2.47
2022-08-07T20:18:32.990Z,3.25
2022-08-07T20:21:20.980Z,3.20
2022-08-07T20:24:03.848Z,2.67
2022-08-07T20:26:44.975Z,1.60
2022-08-07T20:29:17.021Z,2.63
2022-08-07T20:34:49.574Z,2.42
2022-08-07T20:37:22.321Z,2.35
2022-08-07T20:40:04.290Z,3.03
2022-08-07T20:42:34.237Z,3.47
2022-08-07T20:45:02.115Z,4.07
2022-08-07T20:47:55.984Z,3.63
2022-08-07T20:50:21.551Z,3.08
2022-08-07T20:52:51.759Z,5.53
2022-08-07T20:55:23.689Z,3.50
2022-08-07T20:58:02.267Z,3.88
2022-08-07T21:00:43.505Z,4.40
2022-08-07T21:03:16.927Z,2.33
2022-08-07T21:05:54.522Z,2.80
2022-08-07T21:08:35.020Z,2.20
2022-08-07T21:11:05.579Z,4.40
2022-08-07T21:13:56.974Z,3.22
2022-08-07T21:16:26.364Z,2.97
2022-08-07T21:21:27.723Z,3.90
2022-08-07T21:24:15.297Z,3.88
2022-08-07T21:27:07.230Z,2.80
2022-08-07T21:29:37.472Z,2.95
2022-08-07T21:32:46.718Z,4.10
2022-08-07T21:35:06.872Z,3.03
2022-08-07T21:37:57.871Z,3.03
2022-08-07T21:40:38.424Z,2.60
2022-08-07T21:43:10.989Z,3.17
2022-08-07T21:46:05.151Z,3.35
2022-08-07T21:48:48.165Z,3.90
2022-08-07T21:51:32.225Z,3.72
2022-08-07T21:54:13.198Z,3.35
2022-08-07T21:56:49.045Z,3.88
2022-08-07T21:59:36.306Z,3.83
2022-08-07T22:02:24.532Z,4.88
2022-08-07T22:04:54.359Z,4.35
2022-08-07T22:07:31.717Z,3.00
2022-08-07T22:10:14.566Z,3.90
2022-08-07T22:12:47.956Z,3.15
2022-08-07T22:16:41.978Z,3.60
2022-08-07T22:18:19.395Z,3.67
2022-08-07T22:21:23.295Z,4.53
2022-08-07T22:23:53.950Z,3.85
2022-08-07T22:26:29.987Z,3.08
2022-08-07T22:29:08.815Z,3.50
2022-08-07T22:32:00.357Z,4.57
2022-08-07T22:34:35.560Z,2.60
2022-08-07T22:37:09.398Z,3.75
2022-08-07T22:39:59.257Z,3.40
2022-08-07T22:42:29.638Z,3.78
2022-08-07T22:45:02.079Z,3.13
2022-08-07T22:47:42.664Z,3.58
2022-08-07T22:50:33.328Z,3.95
2022-08-07T22:53:16.748Z,3.35
2022-08-07T22:55:43.955Z,3.45
2022-08-07T22:58:21.600Z,2.55
2022-08-07T23:00:51.937Z,2.67
2022-08-07T23:03:58.129Z,3.55
2022-08-07T23:06:27.143Z,3.45
2022-08-07T23:10:06.414Z,2.70
2022-08-07T23:12:34.449Z,2.67
2022-08-07T23:15:10.898Z,3.17
2022-08-07T23:18:12.882Z,4.18
2022-08-07T23:20:52.937Z,2.95
2022-08-07T23:24:04.342Z,3.13
2022-08-07T23:26:50.309Z,3.78
2022-08-07T23:30:35.925Z,2.97
2022-08-07T23:34:19.877Z,3.83
2022-08-07T23:35:25.775Z,3.30
2022-08-07T23:38:04.061Z,4.35
2022-08-07T23:40:47.042Z,4.43
2022-08-07T23:43:37.946Z,3.75
2022-08-07T23:46:10.978Z,3.72
2022-08-07T23:48:50.388Z,3.42
2022-08-07T23:52:59.570Z,2.78
2022-08-07T23:54:36.031Z,3.15
2022-08-07T23:57:23.550Z,2.60
